Time;durP1;ratioP1;P1;durP2;ratioP2;P2;SDS_P1;SDS_P2;PMS_P1;PMS_P2;Temp;Humidity;BMP_temperature;BMP_pressure;BME280_temperature;BME280_humidity;BME280_pressure;Samples;Min_cycle;Max_cycle;Signal;HPM_P1;HPM_P2
2023/12/06 00:00:40;;;;;;;7.65;5.25;;;19.70;67.00;;;;;;2063837;28;20513;-51
2023/12/06 00:01:41;;;;;;;8.77;5.30;;;19.50;66.90;;;;;;2063664;28;20014;-51
2023/12/06 00:02:41;;;;;;;7.68;5.60;;;19.60;66.80;;;;;;2066936;28;20030;-54
2023/12/06 00:03:42;;;;;;;6.03;4.53;;;19.60;66.80;;;;;;2066332;28;20098;-51
2023/12/06 00:04:42;;;;;;;7.72;5.00;;;19.60;66.90;;;;;;2067180;28;20033;-53
2023/12/06 00:05:43;;;;;;;6.75;5.10;;;19.60;66.90;;;;;;2065671;28;20025;-52
2023/12/06 00:06:43;;;;;;;7.72;5.00;;;19.50;66.80;;;;;;2062145;28;20073;-54
2023/12/06 00:07:44;;;;;;;6.28;4.57;;;19.50;66.80;;;;;;2063987;28;20057;-51
2023/12/06 00:08:45;;;;;;;7.50;5.30;;;19.50;66.90;;;;;;2060578;28;20019;-51
2023/12/06 00:09:46;;;;;;;7.13;4.97;;;19.60;66.80;;;;;;2066266;28;20073;-51
2023/12/06 00:10:49;;;;;;;7.35;5.22;;;19.50;66.80;;;;;;2067019;28;20018;-51
2023/12/06 00:11:50;;;;;;;7.43;5.07;;;19.60;66.80;;;;;;2065265;28;20401;-52
2023/12/06 00:12:50;;;;;;;9.20;4.88;;;19.60;66.70;;;;;;2066099;28;20101;-53
2023/12/06 00:13:51;;;;;;;7.45;5.20;;;19.50;66.60;;;;;;2063739;28;20030;-52
2023/12/06 00:14:52;;;;;;;7.28;4.78;;;19.50;66.60;;;;;;2066529;28;20053;-51
2023/12/06 00:15:52;;;;;;;7.38;4.90;;;19.50;66.70;;;;;;2067224;28;20061;-51
2023/12/06 00:16:56;;;;;;;7.32;5.30;;;19.40;66.70;;;;;;2061709;28;20101;-51
2023/12/06 00:17:56;;;;;;;7.68;4.97;;;19.50;66.70;;;;;;2066602;28;20062;-55
2023/12/06 00:18:57;;;;;;;8.05;5.38;;;19.50;66.60;;;;;;2067432;28;20129;-51
2023/12/06 00:19:58;;;;;;;8.93;5.25;;;19.50;66.60;;;;;;2065815;28;20492;-51
2023/12/06 00:20:58;;;;;;;6.93;4.78;;;19.50;66.60;;;;;;2065010;28;20404;-54
2023/12/06 00:21:59;;;;;;;8.85;5.70;;;19.50;66.60;;;;;;2062226;28;20054;-51
2023/12/06 00:22:59;;;;;;;7.90;5.50;;;19.50;66.60;;;;;;2064789;28;20023;-50
2023/12/06 00:24:00;;;;;;;8.43;5.10;;;19.50;66.60;;;;;;2067167;28;20034;-51
2023/12/06 00:25:00;;;;;;;8.60;5.43;;;19.50;66.60;;;;;;2063178;28;20061;-52
2023/12/06 00:26:01;;;;;;;8.52;5.78;;;19.50;66.50;;;;;;2063823;28;20213;-51
2023/12/06 00:27:02;;;;;;;8.35;5.25;;;19.50;66.50;;;;;;2065085;28;20109;-53
2023/12/06 00:28:03;;;;;;;8.10;5.15;;;19.50;67.10;;;;;;2062402;28;20478;-51
2023/12/06 00:29:04;;;;;;;8.85;5.10;;;19.50;66.40;;;;;;2065159;28;20026;-51
2023/12/06 00:30:05;;;;;;;8.27;5.13;;;19.50;66.40;;;;;;2064453;28;20453;-52
2023/12/06 00:31:06;;;;;;;8.18;5.32;;;19.50;66.40;;;;;;2062948;28;20030;-50
2023/12/06 00:32:06;;;;;;;7.93;5.00;;;19.50;66.40;;;;;;2065434;28;20054;-55
2023/12/06 00:33:07;;;;;;;7.28;4.60;;;19.30;66.30;;;;;;2064335;28;20412;-51
2023/12/06 00:34:08;;;;;;;6.43;4.38;;;19.40;66.30;;;;;;2065098;28;20080;-51
2023/12/06 00:35:09;;;;;;;7.60;5.20;;;19.40;66.40;;;;;;2063234;28;20700;-51
2023/12/06 00:36:10;;;;;;;8.50;5.57;;;19.50;66.40;;;;;;2062005;28;20041;-52
2023/12/06 00:37:11;;;;;;;8.65;5.50;;;19.40;66.30;;;;;;2064156;28;20519;-51
2023/12/06 00:38:12;;;;;;;7.75;5.18;;;19.40;66.20;;;;;;2065931;28;20076;-52
2023/12/06 00:39:13;;;;;;;8.55;5.85;;;19.40;66.20;;;;;;2066124;28;20030;-53
2023/12/06 00:40:14;;;;;;;8.15;5.30;;;19.40;66.20;;;;;;2063137;28;20121;-51
2023/12/06 00:41:15;;;;;;;7.43;5.40;;;19.40;66.20;;;;;;2066145;28;20034;-51
2023/12/06 00:42:15;;;;;;;8.27;5.32;;;19.50;66.20;;;;;;2063387;28;20038;-51
2023/12/06 00:43:17;;;;;;;7.50;5.30;;;19.40;66.20;;;;;;2066825;28;20033;-51
2023/12/06 00:44:17;;;;;;;7.60;5.15;;;19.40;66.20;;;;;;2060501;28;20027;-52
2023/12/06 00:45:18;;;;;;;8.82;5.28;;;19.40;66.20;;;;;;2064470;28;20107;-52
2023/12/06 00:46:18;;;;;;;8.10;5.00;;;19.40;66.20;;;;;;2062600;28;20064;-52
2023/12/06 00:47:19;;;;;;;6.63;4.72;;;19.40;66.20;;;;;;2066562;28;20026;-51
2023/12/06 00:48:19;;;;;;;7.07;4.85;;;19.30;66.10;;;;;;2067240;28;20485;-51
2023/12/06 00:49:20;;;;;;;8.35;4.70;;;19.40;66.20;;;;;;2062428;28;20477;-53
2023/12/06 00:50:20;;;;;;;7.40;5.03;;;19.40;66.20;;;;;;2067360;28;20026;-51
2023/12/06 00:51:21;;;;;;;6.93;5.15;;;19.40;66.20;;;;;;2065093;28;20747;-52
2023/12/06 00:52:22;;;;;;;7.35;4.97;;;19.30;66.20;;;;;;2065057;28;20033;-53
2023/12/06 00:53:23;;;;;;;7.85;5.60;;;19.30;66.10;;;;;;2067389;28;20073;-53
2023/12/06 00:54:23;;;;;;;8.48;5.47;;;19.30;66.10;;;;;;2067380;28;20029;-51
2023/12/06 00:55:24;;;;;;;7.40;4.75;;;19.40;66.20;;;;;;2061670;28;20504;-51
2023/12/06 00:56:24;;;;;;;7.75;5.20;;;19.30;66.10;;;;;;2067591;28;20033;-52
2023/12/06 00:57:25;;;;;;;8.05;5.18;;;19.30;66.10;;;;;;2063275;28;20046;-55
2023/12/06 00:58:25;;;;;;;6.15;4.95;;;19.40;66.20;;;;;;2067642;28;20101;-51
2023/12/06 00:59:26;;;;;;;7.03;5.45;;;19.30;66.10;;;;;;2064658;28;20065;-51
2023/12/06 01:00:27;;;;;;;7.30;4.80;;;19.30;66.00;;;;;;2064675;28;20026;-55
2023/12/06 01:01:27;;;;;;;8.43;5.60;;;19.30;66.00;;;;;;2065203;28;20057;-51
2023/12/06 01:02:28;;;;;;;8.02;5.60;;;19.30;66.00;;;;;;2064700;28;20532;-52
2023/12/06 01:03:29;;;;;;;7.90;4.85;;;19.40;66.20;;;;;;2065743;28;20079;-53
2023/12/06 01:04:29;;;;;;;8.38;5.63;;;19.30;66.10;;;;;;2067522;28;20496;-53
2023/12/06 01:05:30;;;;;;;8.20;5.85;;;19.30;66.00;;;;;;2066361;28;20022;-53
2023/12/06 01:06:30;;;;;;;6.85;5.10;;;19.20;66.00;;;;;;2065886;28;20066;-52
2023/12/06 01:07:31;;;;;;;7.95;4.50;;;19.30;66.10;;;;;;2064499;28;20117;-51
2023/12/06 01:08:32;;;;;;;7.20;5.07;;;19.20;66.00;;;;;;2062088;28;20023;-51
2023/12/06 01:09:32;;;;;;;7.68;5.38;;;19.30;66.00;;;;;;2066927;28;20465;-51
2023/12/06 01:10:34;;;;;;;6.95;4.70;;;19.20;65.90;;;;;;2068272;28;20153;-54
2023/12/06 01:11:34;;;;;;;7.78;5.28;;;19.40;66.00;;;;;;2063009;28;20398;-51
2023/12/06 01:12:35;;;;;;;6.53;4.70;;;19.20;65.80;;;;;;2068064;28;20036;-54
2023/12/06 01:13:36;;;;;;;8.30;5.47;;;19.30;65.80;;;;;;2064683;28;20114;-52
2023/12/06 01:14:36;;;;;;;8.65;5.50;;;19.30;65.90;;;;;;2068548;28;20507;-52
2023/12/06 01:15:37;;;;;;;7.57;5.57;;;19.40;65.90;;;;;;2068927;28;20388;-54
2023/12/06 01:16:37;;;;;;;7.70;5.30;;;19.30;65.80;;;;;;2065033;28;20574;-51
2023/12/06 01:17:38;;;;;;;7.03;5.05;;;19.30;65.80;;;;;;2068811;28;20389;-52
2023/12/06 01:18:38;;;;;;;8.15;5.13;;;19.30;65.90;;;;;;2067285;28;20110;-51
2023/12/06 01:19:39;;;;;;;8.40;5.30;;;19.30;65.90;;;;;;2063990;28;20030;-53
2023/12/06 01:20:39;;;;;;;7.55;5.35;;;19.30;65.90;;;;;;2068532;28;20010;-54
2023/12/06 01:21:40;;;;;;;7.95;5.07;;;19.20;65.80;;;;;;2062376;28;20026;-51
2023/12/06 01:22:41;;;;;;;6.90;4.95;;;19.30;65.90;;;;;;2066389;28;20109;-51
2023/12/06 01:23:41;;;;;;;7.20;5.20;;;19.30;65.80;;;;;;2068722;28;20480;-52
2023/12/06 01:24:42;;;;;;;7.55;5.03;;;19.30;65.80;;;;;;2063948;28;20022;-54
2023/12/06 01:25:43;;;;;;;8.27;5.38;;;19.30;65.80;;;;;;2067979;28;20046;-51
2023/12/06 01:26:43;;;;;;;8.02;4.80;;;19.30;65.80;;;;;;2067739;28;20521;-51
2023/12/06 01:27:44;;;;;;;7.90;5.50;;;19.30;65.90;;;;;;2062224;28;20457;-52
2023/12/06 01:28:44;;;;;;;7.78;5.13;;;19.10;65.70;;;;;;2063595;28;20014;-52
2023/12/06 01:29:45;;;;;;;7.43;5.13;;;19.20;65.70;;;;;;2065284;28;20389;-53
2023/12/06 01:30:45;;;;;;;8.50;5.40;;;19.30;65.90;;;;;;2065238;28;20363;-51
2023/12/06 01:31:46;;;;;;;6.80;4.95;;;19.20;65.80;;;;;;2063490;28;20018;-51
2023/12/06 01:32:47;;;;;;;7.22;5.50;;;19.20;65.80;;;;;;2067817;28;20022;-51
2023/12/06 01:33:47;;;;;;;7.68;4.78;;;19.20;65.80;;;;;;2066662;28;20433;-52
2023/12/06 01:34:48;;;;;;;7.22;4.85;;;19.30;65.90;;;;;;2068263;28;20026;-53
2023/12/06 01:35:48;;;;;;;8.35;5.25;;;19.20;65.80;;;;;;2061352;28;20030;-53
2023/12/06 01:36:49;;;;;;;8.18;5.10;;;19.30;65.80;;;;;;2062897;28;20022;-52
2023/12/06 01:37:50;;;;;;;7.13;4.80;;;19.20;65.70;;;;;;2067242;28;20030;-53
2023/12/06 01:38:50;;;;;;;7.10;4.97;;;19.20;65.70;;;;;;2068023;28;20410;-52
2023/12/06 01:39:51;;;;;;;7.10;4.95;;;19.20;65.70;;;;;;2066003;28;20065;-52
2023/12/06 01:40:51;;;;;;;8.68;5.53;;;19.30;65.70;;;;;;2063838;28;20567;-53
2023/12/06 01:41:53;;;;;;;8.50;5.60;;;19.30;65.70;;;;;;2068190;28;20026;-54
2023/12/06 01:42:53;;;;;;;7.65;4.95;;;19.10;66.20;;;;;;2063825;28;20358;-53
2023/12/06 01:43:54;;;;;;;8.13;5.05;;;19.20;65.60;;;;;;2065576;28;20029;-52
2023/12/06 01:44:54;;;;;;;7.25;5.10;;;19.30;65.60;;;;;;2065142;28;20038;-53
2023/12/06 01:45:55;;;;;;;7.53;5.32;;;19.30;65.70;;;;;;2067748;28;20023;-54
2023/12/06 01:46:55;;;;;;;7.15;5.10;;;19.20;65.60;;;;;;2068774;28;20073;-51
2023/12/06 01:47:56;;;;;;;8.07;5.00;;;19.20;65.60;;;;;;2066957;28;20319;-51
2023/12/06 01:48:59;;;;;;;7.45;5.05;;;19.20;65.60;;;;;;2067178;28;20018;-51
2023/12/06 01:50:01;;;;;;;6.88;4.85;;;19.20;65.60;;;;;;2065927;28;20019;-51
2023/12/06 01:51:03;;;;;;;8.70;5.82;;;19.20;65.60;;;;;;2066130;28;20084;-51
2023/12/06 01:52:04;;;;;;;7.82;5.40;;;19.20;65.60;;;;;;2068519;28;20621;-55
2023/12/06 01:53:04;;;;;;;7.57;4.97;;;19.20;65.60;;;;;;2066257;28;20034;-54
2023/12/06 01:54:05;;;;;;;7.35;5.38;;;19.20;65.60;;;;;;2068333;28;20034;-52
2023/12/06 01:55:06;;;;;;;9.05;5.88;;;19.10;65.50;;;;;;2068822;28;20117;-51
2023/12/06 01:56:08;;;;;;;7.82;5.00;;;19.20;65.60;;;;;;2067514;28;20033;-51
2023/12/06 01:57:10;;;;;;;6.50;4.82;;;19.20;65.60;;;;;;2065262;28;20053;-51
2023/12/06 01:58:11;;;;;;;7.00;4.90;;;19.20;65.60;;;;;;2068012;28;20033;-51
2023/12/06 01:59:12;;;;;;;8.60;5.20;;;19.10;65.50;;;;;;2065114;28;20034;-52
2023/12/06 02:00:13;;;;;;;5.82;4.50;;;19.10;65.50;;;;;;2065588;28;20037;-54
2023/12/06 02:01:14;;;;;;;7.75;5.05;;;19.10;65.50;;;;;;2067303;28;20045;-52
2023/12/06 02:02:14;;;;;;;7.95;5.03;;;19.10;65.50;;;;;;2065969;28;20099;-54
2023/12/06 02:03:15;;;;;;;8.38;5.47;;;19.10;65.50;;;;;;2067274;28;20153;-51
2023/12/06 02:04:16;;;;;;;8.75;5.32;;;19.20;65.50;;;;;;2068259;28;20113;-52
2023/12/06 02:05:17;;;;;;;7.95;5.03;;;19.10;65.50;;;;;;2067342;28;20022;-53
2023/12/06 02:06:18;;;;;;;7.25;5.28;;;19.10;65.50;;;;;;2068810;28;20022;-53
2023/12/06 02:07:20;;;;;;;7.95;5.63;;;19.10;65.40;;;;;;2061026;28;20026;-51
2023/12/06 02:08:21;;;;;;;8.80;5.40;;;19.10;65.40;;;;;;2064870;28;20081;-52
2023/12/06 02:09:22;;;;;;;7.22;4.85;;;19.10;65.40;;;;;;2066185;28;20018;-51
2023/12/06 02:10:22;;;;;;;8.20;5.40;;;19.20;66.10;;;;;;2067041;28;20060;-53
2023/12/06 02:11:23;;;;;;;7.28;4.90;;;19.10;65.40;;;;;;2065889;28;20034;-50
2023/12/06 02:12:24;;;;;;;8.32;5.65;;;19.10;65.40;;;;;;2067103;28;20029;-51
2023/12/06 02:13:24;;;;;;;7.90;5.40;;;19.10;65.40;;;;;;2067040;28;20022;-53
2023/12/06 02:14:25;;;;;;;6.35;4.75;;;19.10;65.40;;;;;;2068386;28;20057;-55
2023/12/06 02:15:26;;;;;;;6.25;4.63;;;19.10;65.40;;;;;;2062595;28;20022;-52
2023/12/06 02:16:26;;;;;;;8.00;5.07;;;19.20;65.40;;;;;;2062652;28;20102;-51
2023/12/06 02:17:28;;;;;;;7.88;4.97;;;19.10;65.40;;;;;;2067849;28;20041;-51
2023/12/06 02:18:29;;;;;;;7.50;4.85;;;19.20;65.40;;;;;;2067970;28;20025;-51
2023/12/06 02:19:30;;;;;;;7.20;5.05;;;19.10;65.30;;;;;;2067394;28;20056;-53
2023/12/06 02:20:32;;;;;;;7.47;5.45;;;19.10;65.30;;;;;;2068826;28;20044;-51
2023/12/06 02:21:33;;;;;;;7.85;5.50;;;19.10;65.30;;;;;;2059858;28;20073;-51
2023/12/06 02:22:34;;;;;;;8.43;5.35;;;19.20;65.30;;;;;;2067506;28;20057;-52
2023/12/06 02:23:37;;;;;;;6.57;4.45;;;19.10;65.20;;;;;;2067930;28;20018;-50
2023/12/06 02:24:39;;;;;;;6.82;5.15;;;19.10;65.20;;;;;;2063168;28;20014;-52
2023/12/06 02:25:41;;;;;;;6.90;4.70;;;19.10;65.20;;;;;;2067315;28;20043;-51
2023/12/06 02:26:42;;;;;;;8.32;5.50;;;19.10;65.20;;;;;;2068339;28;20015;-53
2023/12/06 02:27:44;;;;;;;7.32;5.10;;;19.10;65.20;;;;;;2060715;28;20444;-52
2023/12/06 02:28:44;;;;;;;8.38;5.22;;;19.00;65.20;;;;;;2064414;28;20086;-51
2023/12/06 02:29:45;;;;;;;9.27;5.10;;;19.10;65.20;;;;;;2068860;28;20613;-51
2023/12/06 02:30:45;;;;;;;7.60;4.72;;;19.10;65.30;;;;;;2060900;28;20366;-52
2023/12/06 02:31:46;;;;;;;7.72;4.57;;;19.00;65.20;;;;;;2067862;28;20026;-52
2023/12/06 02:32:47;;;;;;;7.15;4.95;;;19.00;65.30;;;;;;2063796;28;20481;-51
2023/12/06 02:33:50;;;;;;;6.43;4.65;;;19.00;65.30;;;;;;2067551;28;20227;-52
2023/12/06 02:34:52;;;;;;;6.43;4.60;;;19.00;65.20;;;;;;2068520;28;20026;-51
2023/12/06 02:35:58;;;;;;;7.70;5.53;;;19.00;65.20;;;;;;2064513;28;20030;-52
2023/12/06 02:37:02;;;;;;;7.05;4.75;;;19.10;65.30;;;;;;2062540;28;20425;-54
2023/12/06 02:38:05;;;;;;;8.25;5.07;;;19.00;65.20;;;;;;2068065;28;20022;-53
2023/12/06 02:39:05;;;;;;;6.78;4.75;;;19.10;65.30;;;;;;2068536;28;20030;-52
2023/12/06 02:40:10;;;;;;;6.10;4.38;;;19.10;65.30;;;;;;2066126;28;20072;-51
2023/12/06 02:41:13;;;;;;;6.22;4.55;;;19.00;65.20;;;;;;2067426;28;20494;-52
2023/12/06 02:42:14;;;;;;;7.40;4.85;;;19.00;65.30;;;;;;2065592;28;20022;-52
2023/12/06 02:43:18;;;;;;;7.55;4.68;;;19.00;65.30;;;;;;2061789;28;20027;-55
2023/12/06 02:44:18;;;;;;;6.00;4.40;;;19.00;65.30;;;;;;2063147;28;20061;-51
2023/12/06 02:45:19;;;;;;;7.50;4.95;;;19.00;65.20;;;;;;2067800;28;20014;-51
2023/12/06 02:46:20;;;;;;;6.55;4.60;;;19.00;65.20;;;;;;2064518;28;20027;-52
2023/12/06 02:47:21;;;;;;;5.25;4.50;;;19.00;65.20;;;;;;2065759;28;20018;-53
2023/12/06 02:48:21;;;;;;;8.05;5.00;;;19.00;65.20;;;;;;2067956;28;20495;-51
2023/12/06 02:49:22;;;;;;;6.22;4.70;;;19.10;65.30;;;;;;2060495;28;20062;-51
2023/12/06 02:50:23;;;;;;;6.45;4.75;;;19.00;65.20;;;;;;2068079;28;20042;-55
2023/12/06 02:51:23;;;;;;;7.60;4.95;;;19.00;65.20;;;;;;2066377;28;20029;-52
2023/12/06 02:52:24;;;;;;;7.82;4.47;;;19.00;65.20;;;;;;2062474;28;20256;-52
2023/12/06 02:53:24;;;;;;;7.32;5.00;;;19.00;65.10;;;;;;2068320;28;20037;-51
2023/12/06 02:54:25;;;;;;;7.22;4.85;;;19.00;65.10;;;;;;2067576;28;20018;-51
2023/12/06 02:55:25;;;;;;;6.25;4.47;;;19.00;65.00;;;;;;2062686;28;20573;-52
2023/12/06 02:56:26;;;;;;;7.10;4.60;;;19.10;65.10;;;;;;2068898;28;20026;-52
2023/12/06 02:57:27;;;;;;;7.43;4.90;;;19.00;65.00;;;;;;2063628;28;20025;-51
2023/12/06 02:58:28;;;;;;;8.27;4.68;;;19.00;65.00;;;;;;2068982;28;20022;-52
2023/12/06 02:59:28;;;;;;;6.93;4.80;;;19.00;65.00;;;;;;2067918;28;20025;-53
2023/12/06 03:00:29;;;;;;;8.18;5.45;;;19.00;65.00;;;;;;2064956;28;20030;-53
2023/12/06 03:01:29;;;;;;;6.65;5.18;;;19.00;65.00;;;;;;2068641;28;20033;-52
2023/12/06 03:02:30;;;;;;;7.55;4.95;;;18.90;64.90;;;;;;2067198;28;20037;-52
2023/12/06 03:03:31;;;;;;;6.95;4.65;;;19.00;65.00;;;;;;2062332;28;20863;-53
2023/12/06 03:04:31;;;;;;;7.50;4.88;;;19.00;65.00;;;;;;2068601;28;20068;-51
2023/12/06 03:05:32;;;;;;;5.78;4.40;;;19.00;65.00;;;;;;2068060;28;20054;-54
2023/12/06 03:06:32;;;;;;;6.80;4.68;;;19.00;65.00;;;;;;2067645;28;20021;-53
2023/12/06 03:07:33;;;;;;;6.97;4.68;;;18.90;65.00;;;;;;2064901;28;20019;-56
2023/12/06 03:08:33;;;;;;;6.75;4.90;;;18.90;65.00;;;;;;2064738;28;20501;-52
2023/12/06 03:09:35;;;;;;;5.82;4.50;;;18.90;65.10;;;;;;2063671;28;20037;-53
2023/12/06 03:10:36;;;;;;;7.70;4.78;;;19.00;65.10;;;;;;2067437;28;20105;-52
2023/12/06 03:11:36;;;;;;;7.00;4.70;;;18.90;65.00;;;;;;2067130;28;20019;-51
2023/12/06 03:12:37;;;;;;;6.35;4.72;;;18.90;64.90;;;;;;2066328;28;20080;-52
2023/12/06 03:13:37;;;;;;;6.22;4.22;;;18.90;65.00;;;;;;2064234;28;20030;-52
2023/12/06 03:14:38;;;;;;;7.10;4.57;;;19.00;65.00;;;;;;2062482;28;20035;-51
2023/12/06 03:15:39;;;;;;;7.15;4.75;;;18.90;65.00;;;;;;2066301;28;20398;-51
2023/12/06 03:16:40;;;;;;;6.13;4.50;;;18.90;65.00;;;;;;2068509;28;20107;-51
2023/12/06 03:17:40;;;;;;;8.00;4.53;;;18.90;65.00;;;;;;2066436;28;20316;-51
2023/12/06 03:18:41;;;;;;;5.68;4.03;;;19.00;65.10;;;;;;2067530;28;20022;-51
2023/12/06 03:19:41;;;;;;;7.28;4.57;;;18.90;65.10;;;;;;2063380;28;20233;-51
2023/12/06 03:20:42;;;;;;;6.47;4.53;;;18.90;65.10;;;;;;2064033;28;20030;-51
2023/12/06 03:21:42;;;;;;;8.27;4.70;;;18.90;65.00;;;;;;2066716;28;20029;-51
2023/12/06 03:22:43;;;;;;;5.85;4.38;;;18.90;64.90;;;;;;2067280;28;20037;-52
2023/12/06 03:23:43;;;;;;;6.30;4.28;;;19.00;65.00;;;;;;2060462;28;20030;-51
2023/12/06 03:24:44;;;;;;;6.47;4.63;;;18.90;65.00;;;;;;2068158;28;20108;-54
2023/12/06 03:25:44;;;;;;;5.45;4.22;;;18.90;64.90;;;;;;2064892;28;20046;-51
2023/12/06 03:26:45;;;;;;;6.95;4.90;;;18.90;64.90;;;;;;2068302;28;20022;-54
2023/12/06 03:27:46;;;;;;;5.57;4.20;;;18.90;64.90;;;;;;2063661;28;20057;-54
2023/12/06 03:28:46;;;;;;;6.25;4.47;;;18.90;64.90;;;;;;2063868;28;20322;-53
2023/12/06 03:29:47;;;;;;;5.68;4.68;;;18.90;64.90;;;;;;2068284;28;20018;-51
2023/12/06 03:30:47;;;;;;;7.57;4.78;;;19.00;65.00;;;;;;2060753;28;20030;-54
2023/12/06 03:31:48;;;;;;;5.38;4.38;;;18.90;64.90;;;;;;2066786;28;20470;-51
2023/12/06 03:32:48;;;;;;;7.20;4.35;;;18.90;64.90;;;;;;2067679;28;20477;-52
2023/12/06 03:33:49;;;;;;;6.63;4.30;;;18.90;64.90;;;;;;2067228;28;20394;-51
2023/12/06 03:34:49;;;;;;;5.90;4.40;;;18.90;64.90;;;;;;2068861;28;20358;-53
2023/12/06 03:35:50;;;;;;;7.13;4.57;;;18.90;64.90;;;;;;2063911;28;20105;-52
2023/12/06 03:36:50;;;;;;;5.05;4.10;;;18.90;64.90;;;;;;2061968;28;20033;-54
2023/12/06 03:37:51;;;;;;;5.20;3.70;;;18.90;64.90;;;;;;2067232;28;20452;-51
2023/12/06 03:38:52;;;;;;;5.45;4.10;;;18.90;64.90;;;;;;2064372;28;20018;-51
2023/12/06 03:39:52;;;;;;;7.55;4.82;;;18.90;64.90;;;;;;2066356;28;20034;-52
2023/12/06 03:40:53;;;;;;;5.70;3.70;;;18.90;64.90;;;;;;2068276;28;20058;-52
2023/12/06 03:41:53;;;;;;;6.70;4.18;;;18.90;64.90;;;;;;2068009;28;20373;-51
2023/12/06 03:42:54;;;;;;;4.45;3.42;;;18.90;64.90;;;;;;2063175;28;20108;-51
2023/12/06 03:43:54;;;;;;;5.47;4.15;;;18.80;64.90;;;;;;2068749;28;20359;-51
2023/12/06 03:44:55;;;;;;;7.32;4.53;;;18.80;64.90;;;;;;2059411;28;20393;-53
2023/12/06 03:45:55;;;;;;;5.00;3.80;;;18.80;64.80;;;;;;2066683;28;20097;-52
2023/12/06 03:46:56;;;;;;;5.43;4.32;;;18.80;64.80;;;;;;2068716;28;20031;-51
2023/12/06 03:47:56;;;;;;;5.43;4.05;;;18.70;64.80;;;;;;2065685;28;20113;-54
2023/12/06 03:48:57;;;;;;;6.50;4.47;;;18.70;64.80;;;;;;2068410;28;20018;-53
2023/12/06 03:49:57;;;;;;;5.53;4.20;;;18.80;64.90;;;;;;2066922;28;20089;-52
2023/12/06 03:50:58;;;;;;;5.82;4.05;;;18.80;64.90;;;;;;2063652;28;20054;-51
2023/12/06 03:51:58;;;;;;;6.20;4.18;;;18.80;64.90;;;;;;2065924;28;20019;-51
2023/12/06 03:52:59;;;;;;;6.75;4.68;;;18.80;64.90;;;;;;2062884;28;20026;-51
2023/12/06 03:53:59;;;;;;;6.70;4.13;;;18.90;64.90;;;;;;2061078;28;20015;-51
2023/12/06 03:55:00;;;;;;;6.60;4.65;;;18.90;64.90;;;;;;2063673;28;20031;-52
2023/12/06 03:56:01;;;;;;;5.25;4.00;;;18.80;64.80;;;;;;2063189;28;20080;-53
2023/12/06 03:57:01;;;;;;;6.20;4.30;;;18.80;64.80;;;;;;2065583;28;20101;-52
2023/12/06 03:58:02;;;;;;;5.97;4.03;;;18.80;64.90;;;;;;2066737;28;20034;-53
2023/12/06 03:59:04;;;;;;;5.38;4.00;;;18.70;64.80;;;;;;2061822;28;20043;-53
2023/12/06 04:00:06;;;;;;;4.93;3.80;;;18.70;64.80;;;;;;2065103;28;20034;-54
2023/12/06 04:01:07;;;;;;;6.40;4.10;;;18.80;64.90;;;;;;2066284;28;20061;-51
2023/12/06 04:02:08;;;;;;;5.45;4.38;;;18.70;64.80;;;;;;2067091;28;20022;-51
2023/12/06 04:03:09;;;;;;;6.20;4.35;;;18.80;64.90;;;;;;2066583;28;20058;-51
2023/12/06 04:04:11;;;;;;;5.47;3.80;;;18.80;64.90;;;;;;2067865;28;20025;-51
2023/12/06 04:05:12;;;;;;;5.63;3.97;;;18.80;64.90;;;;;;2068683;28;20026;-51
2023/12/06 04:06:13;;;;;;;6.18;3.88;;;18.80;64.90;;;;;;2067053;28;20025;-51
2023/12/06 04:07:14;;;;;;;5.45;3.90;;;18.70;64.80;;;;;;2065223;28;20023;-51
2023/12/06 04:08:14;;;;;;;5.28;3.92;;;18.80;64.80;;;;;;2062337;28;20397;-52
2023/12/06 04:09:15;;;;;;;7.55;4.10;;;18.80;64.80;;;;;;2061557;28;20452;-51
2023/12/06 04:10:16;;;;;;;5.97;4.28;;;18.80;64.80;;;;;;2063094;28;20504;-51
2023/12/06 04:11:16;;;;;;;5.75;4.20;;;18.80;64.80;;;;;;2065704;28;20436;-53
2023/12/06 04:12:17;;;;;;;5.78;4.10;;;18.70;64.70;;;;;;2067408;28;20100;-54
2023/12/06 04:13:17;;;;;;;5.43;3.83;;;18.80;64.80;;;;;;2067517;28;20034;-54
2023/12/06 04:14:18;;;;;;;5.70;4.28;;;18.80;64.80;;;;;;2067806;28;20026;-51
2023/12/06 04:15:19;;;;;;;5.78;3.85;;;18.80;64.80;;;;;;2064206;28;20042;-52
2023/12/06 04:16:19;;;;;;;6.18;4.13;;;18.80;64.80;;;;;;2063994;28;20037;-54
2023/12/06 04:17:20;;;;;;;5.65;4.13;;;18.80;64.80;;;;;;2067233;28;20042;-51
2023/12/06 04:18:20;;;;;;;5.32;3.97;;;18.80;64.70;;;;;;2063093;28;20026;-51
2023/12/06 04:19:21;;;;;;;6.20;4.13;;;18.70;65.30;;;;;;2065244;28;20088;-51
2023/12/06 04:20:23;;;;;;;6.05;4.03;;;18.70;64.60;;;;;;2067475;28;20014;-52
2023/12/06 04:21:24;;;;;;;5.20;4.03;;;18.70;64.60;;;;;;2065595;28;20014;-53
2023/12/06 04:22:25;;;;;;;5.72;4.13;;;18.80;64.80;;;;;;2068363;28;20029;-51
2023/12/06 04:23:25;;;;;;;5.22;3.80;;;18.70;64.70;;;;;;2062921;28;20022;-52
2023/12/06 04:24:26;;;;;;;6.28;3.97;;;18.70;64.70;;;;;;2063735;28;20034;-51
2023/12/06 04:25:26;;;;;;;4.95;3.78;;;18.70;64.70;;;;;;2060393;28;20031;-51
2023/12/06 04:26:27;;;;;;;6.30;3.92;;;18.70;64.70;;;;;;2061851;28;20026;-52
2023/12/06 04:27:28;;;;;;;6.13;4.00;;;18.70;64.80;;;;;;2063753;28;20010;-52
2023/12/06 04:28:28;;;;;;;4.90;3.60;;;18.70;64.70;;;;;;2063980;28;20026;-53
2023/12/06 04:29:29;;;;;;;5.43;4.03;;;18.80;64.80;;;;;;2066491;28;20527;-51
2023/12/06 04:30:29;;;;;;;5.07;3.55;;;18.70;64.80;;;;;;2062806;28;20505;-52
2023/12/06 04:31:30;;;;;;;5.57;3.90;;;18.70;64.70;;;;;;2068495;28;20084;-51
2023/12/06 04:32:30;;;;;;;5.88;3.75;;;18.80;64.80;;;;;;2068304;28;20073;-50
2023/12/06 04:33:31;;;;;;;5.32;4.10;;;18.70;64.80;;;;;;2061921;28;20776;-51
2023/12/06 04:34:33;;;;;;;6.10;4.28;;;18.70;64.80;;;;;;2068317;28;20037;-54
2023/12/06 04:35:33;;;;;;;6.43;4.18;;;18.70;64.80;;;;;;2059532;28;20018;-51
2023/12/06 04:36:34;;;;;;;5.68;3.97;;;18.70;64.70;;;;;;2061663;28;20011;-51
2023/12/06 04:37:34;;;;;;;4.72;3.80;;;18.70;64.70;;;;;;2063751;28;20026;-51
2023/12/06 04:38:35;;;;;;;5.47;4.32;;;18.70;64.70;;;;;;2068558;28;20080;-51
2023/12/06 04:39:36;;;;;;;6.05;4.10;;;18.80;64.70;;;;;;2061112;28;20027;-52
2023/12/06 04:40:36;;;;;;;5.85;4.22;;;18.70;64.70;;;;;;2068672;28;20022;-54
2023/12/06 04:41:37;;;;;;;6.45;3.97;;;18.70;64.70;;;;;;2067903;28;20030;-53
2023/12/06 04:42:37;;;;;;;5.40;4.13;;;18.70;64.70;;;;;;2062841;28;20089;-51
2023/12/06 04:43:38;;;;;;;6.05;4.10;;;18.60;64.70;;;;;;2067553;28;20030;-52
2023/12/06 04:44:38;;;;;;;4.38;3.55;;;18.70;64.70;;;;;;2063736;28;20105;-51
2023/12/06 04:45:39;;;;;;;5.35;3.65;;;18.70;64.70;;;;;;2069446;28;20372;-52
2023/12/06 04:46:40;;;;;;;4.63;3.70;;;18.70;64.60;;;;;;2069940;28;20044;-53
2023/12/06 04:47:40;;;;;;;5.60;3.90;;;18.70;64.60;;;;;;2066599;28;20078;-51
2023/12/06 04:48:41;;;;;;;4.95;3.40;;;18.70;64.60;;;;;;2068892;28;20014;-52
2023/12/06 04:49:41;;;;;;;4.80;3.58;;;18.80;65.10;;;;;;2069945;28;20021;-55
2023/12/06 04:50:42;;;;;;;4.38;3.67;;;18.60;64.60;;;;;;2069673;28;20021;-51
2023/12/06 04:51:42;;;;;;;5.53;4.00;;;18.70;64.70;;;;;;2068812;28;20362;-52
2023/12/06 04:52:43;;;;;;;5.45;4.00;;;18.70;64.60;;;;;;2066635;28;20022;-53
2023/12/06 04:53:43;;;;;;;7.55;4.07;;;18.70;64.60;;;;;;2070112;28;20022;-52
2023/12/06 04:54:44;;;;;;;6.32;3.80;;;18.70;64.60;;;;;;2064156;28;20022;-51
2023/12/06 04:55:45;;;;;;;4.90;3.65;;;18.70;64.60;;;;;;2068219;28;20019;-51
2023/12/06 04:56:46;;;;;;;5.60;3.88;;;18.70;64.60;;;;;;2069577;28;20066;-52
2023/12/06 04:57:46;;;;;;;5.25;3.47;;;18.70;64.70;;;;;;2060008;28;20019;-51
2023/12/06 04:58:47;;;;;;;6.32;3.88;;;18.60;64.60;;;;;;2069142;28;21337;-52
2023/12/06 04:59:47;;;;;;;4.22;3.35;;;18.70;64.70;;;;;;2064751;28;20659;-51
2023/12/06 05:00:50;;;;;;;5.70;4.10;;;18.70;64.70;;;;;;2069807;28;20030;-50
2023/12/06 05:01:50;;;;;;;4.78;3.50;;;18.60;64.60;;;;;;2069952;28;20540;-52
2023/12/06 05:02:51;;;;;;;5.82;3.70;;;18.70;64.70;;;;;;2066434;28;20069;-50
2023/12/06 05:03:52;;;;;;;5.70;3.90;;;18.60;64.60;;;;;;2062197;28;20077;-54
2023/12/06 05:04:52;;;;;;;4.50;3.67;;;18.70;64.60;;;;;;2063329;28;20120;-50
2023/12/06 05:05:53;;;;;;;4.97;3.75;;;18.70;64.60;;;;;;2066867;28;20076;-54
2023/12/06 05:06:53;;;;;;;5.25;3.60;;;18.70;64.70;;;;;;2068406;28;20085;-51
2023/12/06 05:07:55;;;;;;;5.20;3.40;;;18.60;64.70;;;;;;2061033;28;20018;-51
2023/12/06 05:08:56;;;;;;;6.60;3.78;;;18.50;64.60;;;;;;2068164;28;20552;-51
2023/12/06 05:09:57;;;;;;;6.15;3.63;;;18.60;64.70;;;;;;2068754;28;20097;-55
2023/12/06 05:10:57;;;;;;;4.80;3.75;;;18.60;64.70;;;;;;2062461;28;20019;-51
2023/12/06 05:11:58;;;;;;;5.38;3.75;;;18.70;64.70;;;;;;2070372;28;20061;-53
2023/12/06 05:12:59;;;;;;;6.13;3.70;;;18.60;64.70;;;;;;2069912;28;20105;-51
2023/12/06 05:14:00;;;;;;;4.82;3.47;;;18.60;64.70;;;;;;2068131;28;20033;-51
2023/12/06 05:15:00;;;;;;;5.65;3.90;;;18.60;64.60;;;;;;2068972;28;20037;-53
2023/12/06 05:16:01;;;;;;;5.38;3.58;;;18.60;64.60;;;;;;2066509;28;20018;-51
2023/12/06 05:17:01;;;;;;;4.22;3.35;;;18.60;64.60;;;;;;2069149;28;20030;-51